sensor_id;sensor_type;location;lat;lon;timestamp;P1;durP1;ratioP1;P2;durP2;ratioP2
32038;SDS011;18549;42.286;22.688;2022-10-03T00:04:18;7.07;;;2.63;;
32038;SDS011;18549;42.286;22.688;2022-10-03T00:06:58;8.40;;;3.90;;
32038;SDS011;18549;42.286;22.688;2022-10-03T00:09:38;9.77;;;2.80;;
32038;SDS011;18549;42.286;22.688;2022-10-03T00:12:18;4.80;;;2.53;;
32038;SDS011;18549;42.286;22.688;2022-10-03T00:15:01;9.37;;;2.70;;
32038;SDS011;18549;42.286;22.688;2022-10-03T00:17:36;6.97;;;3.10;;
32038;SDS011;18549;42.286;22.688;2022-10-03T00:20:11;5.33;;;2.70;;
32038;SDS011;18549;42.286;22.688;2022-10-03T00:22:58;6.57;;;3.03;;
32038;SDS011;18549;42.286;22.688;2022-10-03T00:25:39;5.03;;;2.60;;
32038;SDS011;18549;42.286;22.688;2022-10-03T00:28:15;6.70;;;3.40;;
32038;SDS011;18549;42.286;22.688;2022-10-03T00:31:06;4.77;;;2.67;;
32038;SDS011;18549;42.286;22.688;2022-10-03T00:33:38;8.83;;;3.67;;
32038;SDS011;18549;42.286;22.688;2022-10-03T00:36:18;7.50;;;3.80;;
32038;SDS011;18549;42.286;22.688;2022-10-03T00:38:57;11.63;;;3.87;;
32038;SDS011;18549;42.286;22.688;2022-10-03T00:41:57;7.07;;;4.40;;
32038;SDS011;18549;42.286;22.688;2022-10-03T00:44:47;15.23;;;4.10;;
32038;SDS011;18549;42.286;22.688;2022-10-03T00:47:32;8.00;;;4.23;;
32038;SDS011;18549;42.286;22.688;2022-10-03T00:50:16;8.57;;;3.97;;
32038;SDS011;18549;42.286;22.688;2022-10-03T00:52:56;9.43;;;3.87;;
32038;SDS011;18549;42.286;22.688;2022-10-03T00:55:39;10.67;;;4.10;;
32038;SDS011;18549;42.286;22.688;2022-10-03T00:58:32;5.77;;;4.07;;
32038;SDS011;18549;42.286;22.688;2022-10-03T01:01:19;7.07;;;3.40;;
32038;SDS011;18549;42.286;22.688;2022-10-03T01:03:51;4.20;;;3.07;;
32038;SDS011;18549;42.286;22.688;2022-10-03T01:06:28;11.57;;;3.10;;
32038;SDS011;18549;42.286;22.688;2022-10-03T01:09:08;11.63;;;3.40;;
32038;SDS011;18549;42.286;22.688;2022-10-03T01:12:13;7.73;;;3.33;;
32038;SDS011;18549;42.286;22.688;2022-10-03T01:15:05;7.87;;;3.80;;
32038;SDS011;18549;42.286;22.688;2022-10-03T01:17:41;5.10;;;3.60;;
32038;SDS011;18549;42.286;22.688;2022-10-03T01:20:25;6.53;;;3.87;;
32038;SDS011;18549;42.286;22.688;2022-10-03T01:23:13;5.90;;;3.20;;
32038;SDS011;18549;42.286;22.688;2022-10-03T01:25:58;6.83;;;3.50;;
32038;SDS011;18549;42.286;22.688;2022-10-03T01:28:47;7.97;;;3.33;;
32038;SDS011;18549;42.286;22.688;2022-10-03T01:31:39;5.70;;;3.50;;
32038;SDS011;18549;42.286;22.688;2022-10-03T01:34:15;5.17;;;2.77;;
32038;SDS011;18549;42.286;22.688;2022-10-03T01:36:51;5.77;;;3.00;;
32038;SDS011;18549;42.286;22.688;2022-10-03T01:39:27;9.33;;;3.17;;
32038;SDS011;18549;42.286;22.688;2022-10-03T01:42:03;2.83;;;2.23;;
32038;SDS011;18549;42.286;22.688;2022-10-03T01:44:39;7.70;;;4.53;;
32038;SDS011;18549;42.286;22.688;2022-10-03T01:47:21;7.73;;;3.80;;
32038;SDS011;18549;42.286;22.688;2022-10-03T01:49:53;8.00;;;3.87;;
32038;SDS011;18549;42.286;22.688;2022-10-03T01:52:29;8.87;;;5.10;;
32038;SDS011;18549;42.286;22.688;2022-10-03T01:55:05;11.30;;;6.63;;
32038;SDS011;18549;42.286;22.688;2022-10-03T01:57:41;12.50;;;7.27;;
32038;SDS011;18549;42.286;22.688;2022-10-03T02:00:16;10.07;;;6.07;;
32038;SDS011;18549;42.286;22.688;2022-10-03T02:02:46;10.30;;;5.43;;
32038;SDS011;18549;42.286;22.688;2022-10-03T02:05:27;14.00;;;4.83;;
32038;SDS011;18549;42.286;22.688;2022-10-03T02:08:04;6.97;;;3.80;;
32038;SDS011;18549;42.286;22.688;2022-10-03T02:10:38;10.23;;;3.53;;
32038;SDS011;18549;42.286;22.688;2022-10-03T02:13:11;5.43;;;2.77;;
32038;SDS011;18549;42.286;22.688;2022-10-03T02:15:52;7.77;;;2.70;;
32038;SDS011;18549;42.286;22.688;2022-10-03T02:18:28;12.00;;;3.30;;
32038;SDS011;18549;42.286;22.688;2022-10-03T02:21:06;3.53;;;2.50;;
32038;SDS011;18549;42.286;22.688;2022-10-03T02:23:38;5.93;;;2.70;;
32038;SDS011;18549;42.286;22.688;2022-10-03T02:26:30;5.13;;;2.63;;
32038;SDS011;18549;42.286;22.688;2022-10-03T02:35:49;5.80;;;2.83;;
32038;SDS011;18549;42.286;22.688;2022-10-03T02:44:44;5.43;;;2.93;;
32038;SDS011;18549;42.286;22.688;2022-10-03T02:51:10;4.77;;;2.77;;
32038;SDS011;18549;42.286;22.688;2022-10-03T02:54:04;5.30;;;2.67;;
32038;SDS011;18549;42.286;22.688;2022-10-03T03:00:06;4.30;;;2.60;;
32038;SDS011;18549;42.286;22.688;2022-10-03T03:08:49;4.13;;;2.77;;
32038;SDS011;18549;42.286;22.688;2022-10-03T03:11:39;4.30;;;2.93;;
32038;SDS011;18549;42.286;22.688;2022-10-03T03:14:30;3.47;;;2.70;;
32038;SDS011;18549;42.286;22.688;2022-10-03T03:17:23;6.47;;;3.87;;
32038;SDS011;18549;42.286;22.688;2022-10-03T03:20:07;12.37;;;3.67;;
32038;SDS011;18549;42.286;22.688;2022-10-03T03:22:47;6.60;;;3.43;;
32038;SDS011;18549;42.286;22.688;2022-10-03T03:25:41;12.60;;;4.47;;
32038;SDS011;18549;42.286;22.688;2022-10-03T03:28:32;3.20;;;2.60;;
32038;SDS011;18549;42.286;22.688;2022-10-03T03:31:10;6.87;;;3.80;;
32038;SDS011;18549;42.286;22.688;2022-10-03T03:33:49;5.67;;;4.10;;
32038;SDS011;18549;42.286;22.688;2022-10-03T03:36:27;12.00;;;4.97;;
32038;SDS011;18549;42.286;22.688;2022-10-03T03:39:04;9.30;;;6.77;;
32038;SDS011;18549;42.286;22.688;2022-10-03T03:41:49;14.50;;;7.10;;
32038;SDS011;18549;42.286;22.688;2022-10-03T03:44:36;14.97;;;7.07;;
32038;SDS011;18549;42.286;22.688;2022-10-03T03:47:24;16.97;;;6.63;;
32038;SDS011;18549;42.286;22.688;2022-10-03T03:53:01;14.07;;;5.80;;
32038;SDS011;18549;42.286;22.688;2022-10-03T03:55:46;10.30;;;6.07;;
32038;SDS011;18549;42.286;22.688;2022-10-03T03:58:29;11.57;;;5.90;;
32038;SDS011;18549;42.286;22.688;2022-10-03T04:04:05;10.40;;;6.07;;
32038;SDS011;18549;42.286;22.688;2022-10-03T04:06:44;11.93;;;7.37;;
32038;SDS011;18549;42.286;22.688;2022-10-03T04:09:26;10.27;;;6.37;;
32038;SDS011;18549;42.286;22.688;2022-10-03T04:12:08;16.17;;;7.40;;
32038;SDS011;18549;42.286;22.688;2022-10-03T04:14:54;18.47;;;6.17;;
32038;SDS011;18549;42.286;22.688;2022-10-03T04:17:35;13.07;;;6.37;;
32038;SDS011;18549;42.286;22.688;2022-10-03T04:23:55;7.93;;;4.30;;
32038;SDS011;18549;42.286;22.688;2022-10-03T04:26:40;19.97;;;4.80;;
32038;SDS011;18549;42.286;22.688;2022-10-03T04:29:30;10.80;;;6.27;;
32038;SDS011;18549;42.286;22.688;2022-10-03T04:32:12;8.37;;;5.40;;
32038;SDS011;18549;42.286;22.688;2022-10-03T04:34:55;10.60;;;4.67;;
32038;SDS011;18549;42.286;22.688;2022-10-03T04:37:48;8.27;;;4.07;;
32038;SDS011;18549;42.286;22.688;2022-10-03T04:40:26;9.43;;;4.47;;
32038;SDS011;18549;42.286;22.688;2022-10-03T04:43:04;17.73;;;5.03;;
32038;SDS011;18549;42.286;22.688;2022-10-03T04:45:44;15.93;;;5.63;;
32038;SDS011;18549;42.286;22.688;2022-10-03T04:48:26;17.00;;;10.83;;
32038;SDS011;18549;42.286;22.688;2022-10-03T04:51:03;11.27;;;8.47;;
32038;SDS011;18549;42.286;22.688;2022-10-03T04:53:40;7.77;;;5.13;;
32038;SDS011;18549;42.286;22.688;2022-10-03T04:56:20;15.50;;;5.47;;
32038;SDS011;18549;42.286;22.688;2022-10-03T04:58:59;9.57;;;5.67;;
32038;SDS011;18549;42.286;22.688;2022-10-03T05:01:34;13.03;;;5.67;;
32038;SDS011;18549;42.286;22.688;2022-10-03T05:04:23;6.87;;;4.53;;
32038;SDS011;18549;42.286;22.688;2022-10-03T05:06:57;9.73;;;5.17;;
32038;SDS011;18549;42.286;22.688;2022-10-03T05:09:34;9.03;;;4.83;;
32038;SDS011;18549;42.286;22.688;2022-10-03T05:12:09;9.93;;;4.70;;
32038;SDS011;18549;42.286;22.688;2022-10-03T05:14:48;10.17;;;3.87;;
32038;SDS011;18549;42.286;22.688;2022-10-03T05:17:24;15.03;;;5.23;;
32038;SDS011;18549;42.286;22.688;2022-10-03T05:20:18;13.67;;;7.97;;
32038;SDS011;18549;42.286;22.688;2022-10-03T05:22:51;29.57;;;14.07;;
32038;SDS011;18549;42.286;22.688;2022-10-03T05:25:27;15.00;;;7.57;;
32038;SDS011;18549;42.286;22.688;2022-10-03T05:28:10;16.57;;;7.27;;
32038;SDS011;18549;42.286;22.688;2022-10-03T05:30:47;14.60;;;7.03;;
32038;SDS011;18549;42.286;22.688;2022-10-03T05:33:21;12.77;;;6.53;;
32038;SDS011;18549;42.286;22.688;2022-10-03T05:36:03;12.83;;;7.13;;
32038;SDS011;18549;42.286;22.688;2022-10-03T05:41:42;15.10;;;6.90;;
32038;SDS011;18549;42.286;22.688;2022-10-03T05:44:18;64.83;;;18.00;;
32038;SDS011;18549;42.286;22.688;2022-10-03T05:50:01;31.23;;;9.07;;
32038;SDS011;18549;42.286;22.688;2022-10-03T05:52:48;21.57;;;8.23;;
32038;SDS011;18549;42.286;22.688;2022-10-03T05:55:33;17.73;;;7.47;;
32038;SDS011;18549;42.286;22.688;2022-10-03T06:04:35;24.97;;;8.13;;
32038;SDS011;18549;42.286;22.688;2022-10-03T06:07:17;32.43;;;9.67;;
32038;SDS011;18549;42.286;22.688;2022-10-03T06:10:12;17.93;;;9.20;;
32038;SDS011;18549;42.286;22.688;2022-10-03T06:12:54;29.83;;;8.87;;
32038;SDS011;18549;42.286;22.688;2022-10-03T06:15:46;23.90;;;9.83;;
32038;SDS011;18549;42.286;22.688;2022-10-03T06:18:29;16.97;;;11.30;;
32038;SDS011;18549;42.286;22.688;2022-10-03T06:21:26;40.40;;;10.93;;
32038;SDS011;18549;42.286;22.688;2022-10-03T06:27:30;23.57;;;10.73;;
32038;SDS011;18549;42.286;22.688;2022-10-03T06:30:18;23.57;;;9.07;;
32038;SDS011;18549;42.286;22.688;2022-10-03T06:36:13;24.80;;;13.67;;
32038;SDS011;18549;42.286;22.688;2022-10-03T06:45:43;30.77;;;12.53;;
32038;SDS011;18549;42.286;22.688;2022-10-03T06:48:26;19.10;;;12.43;;
32038;SDS011;18549;42.286;22.688;2022-10-03T06:51:22;18.17;;;12.63;;
32038;SDS011;18549;42.286;22.688;2022-10-03T06:57:23;20.93;;;9.83;;
32038;SDS011;18549;42.286;22.688;2022-10-03T07:00:06;24.40;;;10.43;;
32038;SDS011;18549;42.286;22.688;2022-10-03T07:08:57;12.50;;;10.23;;
32038;SDS011;18549;42.286;22.688;2022-10-03T07:12:03;21.53;;;11.13;;
32038;SDS011;18549;42.286;22.688;2022-10-03T07:14:49;20.83;;;11.23;;
32038;SDS011;18549;42.286;22.688;2022-10-03T07:17:41;22.60;;;10.50;;
32038;SDS011;18549;42.286;22.688;2022-10-03T07:20:28;15.70;;;9.50;;
32038;SDS011;18549;42.286;22.688;2022-10-03T07:23:23;21.47;;;11.93;;
32038;SDS011;18549;42.286;22.688;2022-10-03T07:29:06;13.40;;;8.13;;
32038;SDS011;18549;42.286;22.688;2022-10-03T07:31:50;11.50;;;8.30;;
32038;SDS011;18549;42.286;22.688;2022-10-03T07:37:42;9.02;;;5.62;;
32038;SDS011;18549;42.286;22.688;2022-10-03T07:40:57;12.77;;;5.13;;
32038;SDS011;18549;42.286;22.688;2022-10-03T07:43:50;10.03;;;3.63;;
32038;SDS011;18549;42.286;22.688;2022-10-03T07:52:50;5.07;;;2.43;;
32038;SDS011;18549;42.286;22.688;2022-10-03T07:55:39;7.80;;;4.00;;
32038;SDS011;18549;42.286;22.688;2022-10-03T07:58:32;13.43;;;5.70;;
32038;SDS011;18549;42.286;22.688;2022-10-03T08:01:16;13.35;;;5.72;;
32038;SDS011;18549;42.286;22.688;2022-10-03T08:04:19;9.43;;;5.27;;
32038;SDS011;18549;42.286;22.688;2022-10-03T08:07:11;25.83;;;8.00;;
32038;SDS011;18549;42.286;22.688;2022-10-03T08:09:57;12.07;;;7.73;;
32038;SDS011;18549;42.286;22.688;2022-10-03T08:12:51;18.62;;;11.93;;
32038;SDS011;18549;42.286;22.688;2022-10-03T08:15:38;22.67;;;13.57;;
32038;SDS011;18549;42.286;22.688;2022-10-03T08:21:35;26.27;;;11.07;;
32038;SDS011;18549;42.286;22.688;2022-10-03T08:24:22;15.73;;;7.28;;
32038;SDS011;18549;42.286;22.688;2022-10-03T08:27:04;12.77;;;6.37;;
32038;SDS011;18549;42.286;22.688;2022-10-03T08:29:50;10.33;;;5.97;;
32038;SDS011;18549;42.286;22.688;2022-10-03T08:32:43;10.33;;;5.60;;
32038;SDS011;18549;42.286;22.688;2022-10-03T08:35:37;10.20;;;5.53;;
32038;SDS011;18549;42.286;22.688;2022-10-03T08:47:47;13.40;;;7.37;;
32038;SDS011;18549;42.286;22.688;2022-10-03T08:50:46;14.33;;;6.43;;
32038;SDS011;18549;42.286;22.688;2022-10-03T08:56:38;12.67;;;8.07;;
32038;SDS011;18549;42.286;22.688;2022-10-03T09:02:31;14.83;;;8.27;;
32038;SDS011;18549;42.286;22.688;2022-10-03T09:05:27;23.97;;;9.20;;
32038;SDS011;18549;42.286;22.688;2022-10-03T09:08:34;20.23;;;7.77;;
32038;SDS011;18549;42.286;22.688;2022-10-03T09:11:33;16.27;;;9.10;;
32038;SDS011;18549;42.286;22.688;2022-10-03T09:14:21;17.67;;;7.90;;
32038;SDS011;18549;42.286;22.688;2022-10-03T09:17:25;22.33;;;12.27;;
32038;SDS011;18549;42.286;22.688;2022-10-03T09:23:43;23.17;;;14.33;;
32038;SDS011;18549;42.286;22.688;2022-10-03T09:29:44;18.23;;;12.00;;
32038;SDS011;18549;42.286;22.688;2022-10-03T09:32:48;18.77;;;11.18;;
32038;SDS011;18549;42.286;22.688;2022-10-03T09:35:50;20.07;;;10.00;;
32038;SDS011;18549;42.286;22.688;2022-10-03T09:44:45;16.13;;;7.00;;
32038;SDS011;18549;42.286;22.688;2022-10-03T09:47:34;16.20;;;6.50;;
32038;SDS011;18549;42.286;22.688;2022-10-03T10:00:15;18.70;;;7.93;;
32038;SDS011;18549;42.286;22.688;2022-10-03T10:02:56;15.23;;;8.73;;
32038;SDS011;18549;42.286;22.688;2022-10-03T10:05:47;16.42;;;8.75;;
32038;SDS011;18549;42.286;22.688;2022-10-03T10:08:32;20.12;;;7.93;;
32038;SDS011;18549;42.286;22.688;2022-10-03T10:11:19;10.13;;;7.97;;
32038;SDS011;18549;42.286;22.688;2022-10-03T10:16:56;15.80;;;7.93;;
32038;SDS011;18549;42.286;22.688;2022-10-03T10:19:59;11.63;;;7.33;;
32038;SDS011;18549;42.286;22.688;2022-10-03T10:22:49;10.73;;;6.60;;
32038;SDS011;18549;42.286;22.688;2022-10-03T10:29:02;14.17;;;7.00;;
32038;SDS011;18549;42.286;22.688;2022-10-03T10:32:00;14.63;;;6.10;;
32038;SDS011;18549;42.286;22.688;2022-10-03T10:35:15;11.18;;;5.47;;
32038;SDS011;18549;42.286;22.688;2022-10-03T10:38:20;18.60;;;9.13;;
32038;SDS011;18549;42.286;22.688;2022-10-03T10:43:52;13.80;;;7.30;;
32038;SDS011;18549;42.286;22.688;2022-10-03T10:46:59;16.17;;;7.57;;
32038;SDS011;18549;42.286;22.688;2022-10-03T10:56:09;4.18;;;3.78;;
32038;SDS011;18549;42.286;22.688;2022-10-03T11:05:30;5.40;;;4.23;;
32038;SDS011;18549;42.286;22.688;2022-10-03T11:11:18;5.37;;;4.50;;
32038;SDS011;18549;42.286;22.688;2022-10-03T11:17:38;4.37;;;3.80;;
32038;SDS011;18549;42.286;22.688;2022-10-03T11:20:57;4.32;;;3.10;;
32038;SDS011;18549;42.286;22.688;2022-10-03T11:39:33;5.90;;;4.62;;
32038;SDS011;18549;42.286;22.688;2022-10-03T11:42:10;5.43;;;3.83;;
32038;SDS011;18549;42.286;22.688;2022-10-03T11:44:48;3.85;;;3.35;;
32038;SDS011;18549;42.286;22.688;2022-10-03T11:47:30;7.32;;;4.90;;
32038;SDS011;18549;42.286;22.688;2022-10-03T11:50:27;3.92;;;3.28;;
32038;SDS011;18549;42.286;22.688;2022-10-03T11:55:58;3.77;;;3.03;;
32038;SDS011;18549;42.286;22.688;2022-10-03T11:58:51;3.50;;;3.17;;
32038;SDS011;18549;42.286;22.688;2022-10-03T12:01:31;2.70;;;2.50;;
32038;SDS011;18549;42.286;22.688;2022-10-03T12:04:12;6.75;;;3.85;;
32038;SDS011;18549;42.286;22.688;2022-10-03T12:09:59;4.63;;;4.23;;
32038;SDS011;18549;42.286;22.688;2022-10-03T12:12:32;5.53;;;4.25;;
32038;SDS011;18549;42.286;22.688;2022-10-03T12:15:13;6.22;;;5.62;;
32038;SDS011;18549;42.286;22.688;2022-10-03T12:17:51;4.12;;;2.83;;
32038;SDS011;18549;42.286;22.688;2022-10-03T12:20:27;4.40;;;4.00;;
32038;SDS011;18549;42.286;22.688;2022-10-03T12:23:01;10.25;;;6.95;;
32038;SDS011;18549;42.286;22.688;2022-10-03T12:25:34;5.10;;;3.90;;
32038;SDS011;18549;42.286;22.688;2022-10-03T12:28:09;3.93;;;3.07;;
32038;SDS011;18549;42.286;22.688;2022-10-03T12:30:43;3.05;;;2.75;;
32038;SDS011;18549;42.286;22.688;2022-10-03T12:33:20;6.90;;;5.10;;
32038;SDS011;18549;42.286;22.688;2022-10-03T12:35:58;8.07;;;6.43;;
32038;SDS011;18549;42.286;22.688;2022-10-03T12:38:36;10.88;;;8.00;;
32038;SDS011;18549;42.286;22.688;2022-10-03T12:41:17;13.38;;;7.32;;
32038;SDS011;18549;42.286;22.688;2022-10-03T12:43:54;6.75;;;5.57;;
32038;SDS011;18549;42.286;22.688;2022-10-03T12:46:36;5.68;;;5.05;;
32038;SDS011;18549;42.286;22.688;2022-10-03T12:49:12;9.00;;;5.90;;
32038;SDS011;18549;42.286;22.688;2022-10-03T12:51:50;6.20;;;4.80;;
32038;SDS011;18549;42.286;22.688;2022-10-03T12:54:26;5.03;;;3.80;;
32038;SDS011;18549;42.286;22.688;2022-10-03T12:57:11;6.85;;;3.92;;
32038;SDS011;18549;42.286;22.688;2022-10-03T13:00:04;5.05;;;4.30;;
32038;SDS011;18549;42.286;22.688;2022-10-03T13:02:37;8.20;;;4.15;;
32038;SDS011;18549;42.286;22.688;2022-10-03T13:05:22;7.22;;;4.95;;
32038;SDS011;18549;42.286;22.688;2022-10-03T13:07:57;6.85;;;4.45;;
32038;SDS011;18549;42.286;22.688;2022-10-03T13:10:32;5.12;;;4.05;;
32038;SDS011;18549;42.286;22.688;2022-10-03T13:13:13;7.60;;;4.25;;
32038;SDS011;18549;42.286;22.688;2022-10-03T13:15:56;3.87;;;3.42;;
32038;SDS011;18549;42.286;22.688;2022-10-03T13:18:44;10.07;;;3.92;;
32038;SDS011;18549;42.286;22.688;2022-10-03T13:21:19;6.45;;;3.53;;
32038;SDS011;18549;42.286;22.688;2022-10-03T13:23:52;5.65;;;4.30;;
32038;SDS011;18549;42.286;22.688;2022-10-03T13:26:24;7.10;;;4.35;;
32038;SDS011;18549;42.286;22.688;2022-10-03T13:32:10;4.90;;;3.70;;
32038;SDS011;18549;42.286;22.688;2022-10-03T13:34:56;6.87;;;5.07;;
32038;SDS011;18549;42.286;22.688;2022-10-03T13:40:43;7.95;;;4.47;;
32038;SDS011;18549;42.286;22.688;2022-10-03T13:43:15;10.48;;;5.57;;
32038;SDS011;18549;42.286;22.688;2022-10-03T13:45:46;6.12;;;4.80;;
32038;SDS011;18549;42.286;22.688;2022-10-03T13:48:17;5.30;;;4.65;;
32038;SDS011;18549;42.286;22.688;2022-10-03T13:50:47;7.93;;;5.35;;
32038;SDS011;18549;42.286;22.688;2022-10-03T13:53:24;5.90;;;5.22;;
32038;SDS011;18549;42.286;22.688;2022-10-03T13:56:01;3.58;;;3.25;;
32038;SDS011;18549;42.286;22.688;2022-10-03T13:58:36;4.97;;;3.67;;
32038;SDS011;18549;42.286;22.688;2022-10-03T14:01:18;4.75;;;3.25;;
32038;SDS011;18549;42.286;22.688;2022-10-03T14:04:08;3.37;;;3.03;;
32038;SDS011;18549;42.286;22.688;2022-10-03T14:06:51;3.80;;;2.78;;
32038;SDS011;18549;42.286;22.688;2022-10-03T14:09:29;3.08;;;2.70;;
32038;SDS011;18549;42.286;22.688;2022-10-03T14:12:16;2.37;;;2.10;;
32038;SDS011;18549;42.286;22.688;2022-10-03T14:14:54;7.18;;;3.83;;
32038;SDS011;18549;42.286;22.688;2022-10-03T14:17:35;8.90;;;3.17;;
32038;SDS011;18549;42.286;22.688;2022-10-03T14:20:17;3.53;;;2.60;;
32038;SDS011;18549;42.286;22.688;2022-10-03T14:22:53;3.75;;;2.20;;
32038;SDS011;18549;42.286;22.688;2022-10-03T14:25:27;4.93;;;4.43;;
32038;SDS011;18549;42.286;22.688;2022-10-03T14:28:00;6.07;;;3.50;;
32038;SDS011;18549;42.286;22.688;2022-10-03T14:30:34;5.67;;;3.10;;
32038;SDS011;18549;42.286;22.688;2022-10-03T14:33:15;6.70;;;3.10;;
32038;SDS011;18549;42.286;22.688;2022-10-03T14:35:57;4.37;;;2.97;;
32038;SDS011;18549;42.286;22.688;2022-10-03T14:38:40;4.63;;;2.90;;
32038;SDS011;18549;42.286;22.688;2022-10-03T14:44:35;5.07;;;3.23;;
32038;SDS011;18549;42.286;22.688;2022-10-03T14:47:06;5.73;;;3.27;;
32038;SDS011;18549;42.286;22.688;2022-10-03T14:49:35;3.53;;;2.40;;
32038;SDS011;18549;42.286;22.688;2022-10-03T14:52:07;3.15;;;2.40;;
32038;SDS011;18549;42.286;22.688;2022-10-03T14:54:42;4.78;;;2.72;;
32038;SDS011;18549;42.286;22.688;2022-10-03T14:57:20;5.27;;;3.07;;
32038;SDS011;18549;42.286;22.688;2022-10-03T14:59:52;5.18;;;3.12;;
32038;SDS011;18549;42.286;22.688;2022-10-03T15:02:25;3.78;;;3.03;;
32038;SDS011;18549;42.286;22.688;2022-10-03T15:04:56;6.45;;;4.85;;
32038;SDS011;18549;42.286;22.688;2022-10-03T15:07:35;9.75;;;4.10;;
32038;SDS011;18549;42.286;22.688;2022-10-03T15:10:05;6.65;;;4.03;;
32038;SDS011;18549;42.286;22.688;2022-10-03T15:12:36;5.65;;;4.28;;
32038;SDS011;18549;42.286;22.688;2022-10-03T15:15:05;8.65;;;4.57;;
32038;SDS011;18549;42.286;22.688;2022-10-03T15:17:42;6.40;;;3.97;;
32038;SDS011;18549;42.286;22.688;2022-10-03T15:20:11;3.35;;;3.05;;
32038;SDS011;18549;42.286;22.688;2022-10-03T15:22:45;4.45;;;3.12;;
32038;SDS011;18549;42.286;22.688;2022-10-03T15:25:15;3.03;;;2.70;;
32038;SDS011;18549;42.286;22.688;2022-10-03T15:27:47;4.82;;;3.30;;
32038;SDS011;18549;42.286;22.688;2022-10-03T15:30:18;3.35;;;2.60;;
32038;SDS011;18549;42.286;22.688;2022-10-03T15:32:47;6.87;;;3.95;;
32038;SDS011;18549;42.286;22.688;2022-10-03T15:35:16;4.85;;;3.35;;
32038;SDS011;18549;42.286;22.688;2022-10-03T15:37:48;5.95;;;4.03;;
32038;SDS011;18549;42.286;22.688;2022-10-03T15:40:19;7.90;;;4.03;;
32038;SDS011;18549;42.286;22.688;2022-10-03T15:42:50;7.50;;;3.83;;
32038;SDS011;18549;42.286;22.688;2022-10-03T15:45:26;4.78;;;3.20;;
32038;SDS011;18549;42.286;22.688;2022-10-03T15:47:57;6.62;;;3.65;;
32038;SDS011;18549;42.286;22.688;2022-10-03T15:50:27;8.65;;;3.53;;
32038;SDS011;18549;42.286;22.688;2022-10-03T15:53:00;4.87;;;3.80;;
32038;SDS011;18549;42.286;22.688;2022-10-03T15:55:33;8.23;;;4.35;;
32038;SDS011;18549;42.286;22.688;2022-10-03T15:58:07;4.37;;;3.40;;
32038;SDS011;18549;42.286;22.688;2022-10-03T16:00:40;5.72;;;3.22;;
32038;SDS011;18549;42.286;22.688;2022-10-03T16:03:11;4.00;;;3.33;;
32038;SDS011;18549;42.286;22.688;2022-10-03T16:05:42;5.40;;;3.67;;
32038;SDS011;18549;42.286;22.688;2022-10-03T16:08:21;5.95;;;3.97;;
32038;SDS011;18549;42.286;22.688;2022-10-03T16:10:56;7.10;;;4.62;;
32038;SDS011;18549;42.286;22.688;2022-10-03T16:13:32;5.55;;;4.65;;
32038;SDS011;18549;42.286;22.688;2022-10-03T16:16:11;5.90;;;4.47;;
32038;SDS011;18549;42.286;22.688;2022-10-03T16:18:48;4.93;;;4.43;;
32038;SDS011;18549;42.286;22.688;2022-10-03T16:21:33;10.20;;;5.37;;
32038;SDS011;18549;42.286;22.688;2022-10-03T16:24:14;8.05;;;6.20;;
32038;SDS011;18549;42.286;22.688;2022-10-03T16:26:47;8.90;;;5.28;;
32038;SDS011;18549;42.286;22.688;2022-10-03T16:29:18;4.97;;;4.35;;
32038;SDS011;18549;42.286;22.688;2022-10-03T16:31:49;6.43;;;3.53;;
32038;SDS011;18549;42.286;22.688;2022-10-03T16:34:20;7.10;;;3.83;;
32038;SDS011;18549;42.286;22.688;2022-10-03T16:36:50;4.97;;;3.60;;
32038;SDS011;18549;42.286;22.688;2022-10-03T16:39:19;6.20;;;4.27;;
32038;SDS011;18549;42.286;22.688;2022-10-03T16:41:49;6.57;;;3.53;;
32038;SDS011;18549;42.286;22.688;2022-10-03T16:44:21;6.70;;;3.92;;
32038;SDS011;18549;42.286;22.688;2022-10-03T16:46:50;5.03;;;3.13;;
32038;SDS011;18549;42.286;22.688;2022-10-03T16:52:27;5.33;;;3.67;;
32038;SDS011;18549;42.286;22.688;2022-10-03T16:54:59;4.93;;;4.00;;
32038;SDS011;18549;42.286;22.688;2022-10-03T16:57:31;7.57;;;4.03;;
32038;SDS011;18549;42.286;22.688;2022-10-03T17:00:12;4.45;;;3.67;;
32038;SDS011;18549;42.286;22.688;2022-10-03T17:02:42;4.60;;;3.20;;
32038;SDS011;18549;42.286;22.688;2022-10-03T17:05:11;10.50;;;4.23;;
32038;SDS011;18549;42.286;22.688;2022-10-03T17:07:41;8.33;;;4.03;;
32038;SDS011;18549;42.286;22.688;2022-10-03T17:12:59;4.87;;;4.37;;
32038;SDS011;18549;42.286;22.688;2022-10-03T17:15:29;13.17;;;4.90;;
32038;SDS011;18549;42.286;22.688;2022-10-03T17:18:02;9.97;;;6.43;;
32038;SDS011;18549;42.286;22.688;2022-10-03T17:20:40;7.80;;;6.17;;
32038;SDS011;18549;42.286;22.688;2022-10-03T17:23:15;9.27;;;4.40;;
32038;SDS011;18549;42.286;22.688;2022-10-03T17:26:02;7.97;;;5.00;;
32038;SDS011;18549;42.286;22.688;2022-10-03T17:28:38;7.67;;;5.63;;
32038;SDS011;18549;42.286;22.688;2022-10-03T17:31:21;8.17;;;5.73;;
32038;SDS011;18549;42.286;22.688;2022-10-03T17:33:54;5.83;;;3.80;;
32038;SDS011;18549;42.286;22.688;2022-10-03T17:39:26;7.10;;;6.07;;
32038;SDS011;18549;42.286;22.688;2022-10-03T17:42:07;12.95;;;8.75;;
32038;SDS011;18549;42.286;22.688;2022-10-03T17:44:46;13.13;;;9.07;;
32038;SDS011;18549;42.286;22.688;2022-10-03T17:47:22;15.60;;;8.80;;
32038;SDS011;18549;42.286;22.688;2022-10-03T17:49:55;22.80;;;14.37;;
32038;SDS011;18549;42.286;22.688;2022-10-03T17:52:26;22.33;;;13.05;;
32038;SDS011;18549;42.286;22.688;2022-10-03T17:54:54;16.97;;;11.27;;
32038;SDS011;18549;42.286;22.688;2022-10-03T17:57:25;20.00;;;9.75;;
32038;SDS011;18549;42.286;22.688;2022-10-03T17:59:56;19.60;;;10.80;;
32038;SDS011;18549;42.286;22.688;2022-10-03T18:02:30;24.50;;;10.60;;
32038;SDS011;18549;42.286;22.688;2022-10-03T18:05:02;14.33;;;9.73;;
32038;SDS011;18549;42.286;22.688;2022-10-03T18:07:36;13.90;;;9.05;;
32038;SDS011;18549;42.286;22.688;2022-10-03T18:10:14;9.25;;;7.25;;
32038;SDS011;18549;42.286;22.688;2022-10-03T18:12:47;10.07;;;6.97;;
32038;SDS011;18549;42.286;22.688;2022-10-03T18:21:13;12.47;;;8.03;;
32038;SDS011;18549;42.286;22.688;2022-10-03T18:23:48;16.43;;;9.27;;
32038;SDS011;18549;42.286;22.688;2022-10-03T18:26:32;10.57;;;7.93;;
32038;SDS011;18549;42.286;22.688;2022-10-03T18:29:09;10.00;;;8.10;;
32038;SDS011;18549;42.286;22.688;2022-10-03T18:31:46;18.02;;;9.27;;
32038;SDS011;18549;42.286;22.688;2022-10-03T18:34:17;13.90;;;8.40;;
32038;SDS011;18549;42.286;22.688;2022-10-03T18:36:47;12.73;;;7.67;;
32038;SDS011;18549;42.286;22.688;2022-10-03T18:39:17;11.37;;;7.47;;
32038;SDS011;18549;42.286;22.688;2022-10-03T18:41:51;11.60;;;6.90;;
32038;SDS011;18549;42.286;22.688;2022-10-03T18:44:24;13.00;;;5.47;;
32038;SDS011;18549;42.286;22.688;2022-10-03T18:46:56;5.60;;;4.12;;
32038;SDS011;18549;42.286;22.688;2022-10-03T18:49:36;5.15;;;3.08;;
32038;SDS011;18549;42.286;22.688;2022-10-03T18:52:07;8.30;;;4.13;;
32038;SDS011;18549;42.286;22.688;2022-10-03T18:54:42;4.67;;;2.93;;
32038;SDS011;18549;42.286;22.688;2022-10-03T18:57:20;3.97;;;3.00;;
32038;SDS011;18549;42.286;22.688;2022-10-03T18:59:53;4.40;;;2.50;;
32038;SDS011;18549;42.286;22.688;2022-10-03T19:02:24;2.83;;;2.33;;
32038;SDS011;18549;42.286;22.688;2022-10-03T19:04:58;4.30;;;3.00;;
32038;SDS011;18549;42.286;22.688;2022-10-03T19:07:32;4.40;;;2.43;;
32038;SDS011;18549;42.286;22.688;2022-10-03T19:10:06;8.33;;;2.90;;